createdAt,value
2023-05-10T00:02:11.832Z,100817.19
2023-05-10T00:07:14.997Z,100813.82
2023-05-10T00:12:18.100Z,100808.91
2023-05-10T00:17:21.414Z,100809.70
2023-05-10T00:22:24.606Z,100804.73
2023-05-10T00:27:27.650Z,100808.07
2023-05-10T00:32:30.942Z,100806.63
2023-05-10T00:37:33.957Z,100802.11
2023-05-10T00:42:37.346Z,100796.55
2023-05-10T00:47:41.026Z,100799.69
2023-05-10T00:52:44.306Z,100801.86
2023-05-10T00:57:48.483Z,100807.50
2023-05-10T01:02:51.816Z,100808.14
2023-05-10T01:07:55.272Z,100807.10
2023-05-10T01:13:00.664Z,100804.20
2023-05-10T01:18:04.387Z,100800.36
2023-05-10T01:23:44.230Z,100795.33
2023-05-10T01:29:11.615Z,100795.14
2023-05-10T01:34:22.098Z,100796.40
2023-05-10T01:39:42.998Z,100794.55
2023-05-10T01:45:05.076Z,100790.93
2023-05-10T01:50:16.406Z,100788.45
2023-05-10T01:55:22.551Z,100791.04
2023-05-10T02:00:26.539Z,100792.27
2023-05-10T02:05:32.258Z,100795.36
2023-05-10T02:10:40.467Z,100801.14
2023-05-10T02:15:44.221Z,100797.46
2023-05-10T02:20:48.287Z,100796.02
2023-05-10T02:25:55.234Z,100799.98
2023-05-10T02:30:58.596Z,100805.33
2023-05-10T02:36:04.006Z,100800.17
2023-05-10T02:41:09.782Z,100797.47
2023-05-10T02:46:12.827Z,100791.70
2023-05-10T02:51:18.789Z,100787.42
2023-05-10T02:56:34.678Z,100784.45
2023-05-10T03:01:37.728Z,100786.04
2023-05-10T03:06:40.998Z,100787.38
2023-05-10T03:12:05.399Z,100784.88
2023-05-10T03:17:16.980Z,100787.41
2023-05-10T03:22:29.437Z,100784.55
2023-05-10T03:27:33.446Z,100774.53
2023-05-10T03:32:36.908Z,100777.38
2023-05-10T03:37:40.303Z,100767.86
2023-05-10T03:42:43.314Z,100766.37
2023-05-10T03:47:46.348Z,100768.74
2023-05-10T03:52:49.528Z,100771.38
2023-05-10T03:57:52.647Z,100770.76
2023-05-10T04:02:55.724Z,100772.34
2023-05-10T04:07:58.860Z,100766.95
2023-05-10T04:13:02.296Z,100765.25
2023-05-10T04:18:07.976Z,100764.86
2023-05-10T04:23:11.988Z,100773.68
2023-05-10T04:28:14.871Z,100774.02
2023-05-10T04:33:17.776Z,100768.55
2023-05-10T04:38:20.782Z,100767.60
2023-05-10T04:43:23.787Z,100761.88
2023-05-10T04:48:26.802Z,100756.73
2023-05-10T04:53:29.801Z,100753.17
2023-05-10T04:58:32.911Z,100753.33
2023-05-10T05:03:36.756Z,100754.35
2023-05-10T05:08:39.845Z,100754.57
2023-05-10T05:13:42.966Z,100747.82
2023-05-10T05:18:45.966Z,100747.92
2023-05-10T05:23:49.349Z,100749.13
2023-05-10T05:28:55.154Z,100748.36
2023-05-10T05:33:58.474Z,100745.52
2023-05-10T05:39:01.545Z,100741.52
2023-05-10T05:44:04.677Z,100745.33
2023-05-10T05:49:07.688Z,100744.19
2023-05-10T05:54:10.792Z,100743.77
2023-05-10T05:59:13.801Z,100738.01
2023-05-10T06:04:17.941Z,100735.19
2023-05-10T06:09:21.044Z,100740.06
2023-05-10T06:14:24.361Z,100738.65
2023-05-10T06:19:27.772Z,100738.66
2023-05-10T06:24:30.983Z,100739.13
2023-05-10T06:29:34.276Z,100735.66
2023-05-10T06:34:37.514Z,100727.24
2023-05-10T06:39:40.619Z,100729.40
2023-05-10T06:44:44.657Z,100725.44
2023-05-10T06:49:47.776Z,100722.63
2023-05-10T06:54:50.981Z,100717.27
2023-05-10T06:59:54.083Z,100718.58
2023-05-10T07:04:58.914Z,100714.55
2023-05-10T07:10:04.556Z,100712.64
2023-05-10T07:15:08.338Z,100712.50
2023-05-10T07:20:11.917Z,100714.58
2023-05-10T07:25:15.008Z,100716.67
2023-05-10T07:30:18.300Z,100715.81
2023-05-10T07:35:21.476Z,100714.71
2023-05-10T07:40:24.607Z,100715.48
2023-05-10T07:45:27.742Z,100719.63
2023-05-10T07:50:31.001Z,100719.84
2023-05-10T07:55:34.622Z,100710.50
2023-05-10T08:00:40.541Z,100710.40
2023-05-10T08:05:43.506Z,100711.87
2023-05-10T08:10:46.727Z,100706.25
2023-05-10T08:15:49.927Z,100707.77
2023-05-10T08:20:53.045Z,100707.11
2023-05-10T08:25:56.148Z,100698.04
2023-05-10T08:30:59.368Z,100707.05
2023-05-10T08:36:02.470Z,100701.26
2023-05-10T08:41:06.519Z,100706.67
2023-05-10T08:46:11.696Z,100700.65
2023-05-10T08:51:18.711Z,100710.69
2023-05-10T08:56:22.048Z,100713.41
2023-05-10T09:01:26.661Z,100708.70
2023-05-10T09:06:30.170Z,100697.05
2023-05-10T09:11:33.749Z,100707.66
2023-05-10T09:16:36.991Z,100705.87
2023-05-10T09:21:39.981Z,100703.21
2023-05-10T09:26:49.753Z,100705.79
2023-05-10T09:31:55.688Z,100689.41
2023-05-10T09:37:03.923Z,100689.66
2023-05-10T09:42:10.831Z,100687.26
2023-05-10T09:47:19.154Z,100687.79
2023-05-10T09:52:22.186Z,100689.32
2023-05-10T09:57:27.020Z,100678.76
2023-05-10T10:02:30.490Z,100679.12
2023-05-10T10:07:34.661Z,100664.48
2023-05-10T10:12:38.189Z,100664.68
2023-05-10T10:17:42.350Z,100651.42
2023-05-10T10:22:45.741Z,100639.16
2023-05-10T10:27:55.021Z,100634.48
2023-05-10T10:33:13.289Z,100625.79
2023-05-10T10:38:24.000Z,100623.79
2023-05-10T10:43:28.551Z,100613.15
2023-05-10T10:48:31.808Z,100619.17
2023-05-10T10:53:35.216Z,100615.06
2023-05-10T10:58:39.947Z,100608.27
2023-05-10T11:04:16.127Z,100598.09
2023-05-10T11:09:19.368Z,100600.14
2023-05-10T11:14:23.801Z,100592.80
2023-05-10T11:19:29.253Z,100592.02
2023-05-10T11:24:32.779Z,100597.14
2023-05-10T11:29:35.887Z,100583.64
2023-05-10T11:34:39.817Z,100575.20
2023-05-10T11:39:48.358Z,100561.34
2023-05-10T11:44:51.467Z,100566.68
2023-05-10T11:49:54.779Z,100560.02
2023-05-10T11:54:58.915Z,100571.95
2023-05-10T12:00:04.787Z,100563.80
2023-05-10T12:05:09.048Z,100562.77
2023-05-10T12:10:18.929Z,100562.39
2023-05-10T12:15:26.009Z,100565.12
2023-05-10T12:20:29.299Z,100556.90
2023-05-10T12:25:36.975Z,100559.19
2023-05-10T12:30:40.584Z,100555.73
2023-05-10T12:35:48.357Z,100560.20
2023-05-10T12:40:51.387Z,100561.35
2023-05-10T12:45:54.636Z,100553.63
2023-05-10T12:50:57.791Z,100551.73
2023-05-10T12:56:00.999Z,100554.20
2023-05-10T13:01:05.303Z,100552.17
2023-05-10T13:06:08.444Z,100545.81
2023-05-10T13:11:11.668Z,100548.13
2023-05-10T13:16:14.950Z,100551.20
2023-05-10T13:21:18.074Z,100551.58
2023-05-10T13:26:21.714Z,100543.71
2023-05-10T13:31:24.906Z,100532.65
2023-05-10T13:36:27.924Z,100533.89
2023-05-10T13:41:30.927Z,100527.16
2023-05-10T13:46:33.848Z,100524.96
2023-05-10T13:51:36.939Z,100527.11
2023-05-10T13:56:43.329Z,100522.84
2023-05-10T14:01:46.658Z,100528.37
2023-05-10T14:06:49.857Z,100522.53
2023-05-10T14:11:53.364Z,100520.64
2023-05-10T14:16:56.685Z,100515.35
2023-05-10T14:21:59.693Z,100511.42
2023-05-10T14:27:03.053Z,100520.73
2023-05-10T14:32:07.047Z,100512.19
2023-05-10T14:37:12.775Z,100509.55
2023-05-10T14:42:15.913Z,100511.13
2023-05-10T14:47:18.829Z,100502.51
2023-05-10T14:52:21.877Z,100502.63
2023-05-10T14:57:24.926Z,100502.30
2023-05-10T15:02:27.933Z,100499.45
2023-05-10T15:07:32.590Z,100501.02
2023-05-10T15:12:35.789Z,100501.19
2023-05-10T15:17:38.839Z,100501.20
2023-05-10T15:22:42.320Z,100499.04
2023-05-10T15:27:45.221Z,100490.30
2023-05-10T15:32:48.563Z,100499.66
2023-05-10T15:37:52.038Z,100494.46
2023-05-10T15:42:55.072Z,100496.05
2023-05-10T15:48:00.294Z,100491.98
2023-05-10T15:53:03.331Z,100497.89
2023-05-10T15:58:06.333Z,100493.86
2023-05-10T16:03:09.465Z,100490.93
2023-05-10T16:08:12.560Z,100491.19
2023-05-10T16:13:17.216Z,100492.56
2023-05-10T16:18:20.482Z,100489.74
2023-05-10T16:23:23.623Z,100489.42
2023-05-10T16:28:26.678Z,100493.11
2023-05-10T16:33:29.741Z,100490.45
2023-05-10T16:38:32.851Z,100490.83
2023-05-10T16:43:36.879Z,100493.52
2023-05-10T16:48:39.984Z,100499.91
2023-05-10T16:53:43.299Z,100504.06
2023-05-10T16:58:47.722Z,100501.98
2023-05-10T17:03:50.864Z,100504.70
2023-05-10T17:08:53.970Z,100503.05
2023-05-10T17:13:57.576Z,100508.19
2023-05-10T17:19:01.446Z,100510.27
2023-05-10T17:24:05.129Z,100523.37
2023-05-10T17:29:08.438Z,100532.25
2023-05-10T17:34:11.446Z,100536.55
2023-05-10T17:39:14.562Z,100543.73
2023-05-10T17:44:17.794Z,100550.10
2023-05-10T17:49:21.081Z,100554.95
2023-05-10T17:54:24.290Z,100557.29
2023-05-10T17:59:27.611Z,100565.26
2023-05-10T18:04:31.712Z,100571.30
2023-05-10T18:09:34.840Z,100572.36
2023-05-10T18:14:40.953Z,100576.05
2023-05-10T18:19:44.562Z,100574.11
2023-05-10T18:24:47.653Z,100575.66
2023-05-10T18:29:50.762Z,100583.98
2023-05-10T18:34:55.640Z,100591.91
2023-05-10T18:39:59.235Z,100600.35
2023-05-10T18:45:02.456Z,100609.66
2023-05-10T18:50:06.505Z,100611.70
2023-05-10T18:55:09.847Z,100618.20
2023-05-10T19:00:13.668Z,100615.84
2023-05-10T19:05:17.132Z,100617.94
2023-05-10T19:10:20.562Z,100624.46
2023-05-10T19:15:24.092Z,100628.27
2023-05-10T19:20:29.268Z,100626.52
2023-05-10T19:25:35.554Z,100629.59
2023-05-10T19:30:38.756Z,100630.73
2023-05-10T19:35:41.733Z,100629.77
2023-05-10T19:40:44.943Z,100633.80
2023-05-10T19:45:48.151Z,100639.80
2023-05-10T19:50:52.691Z,100647.30
2023-05-10T19:55:56.447Z,100648.23
2023-05-10T20:01:00.053Z,100656.25
2023-05-10T20:06:04.240Z,100661.84
2023-05-10T20:11:07.373Z,100664.65
2023-05-10T20:16:10.636Z,100665.52
2023-05-10T20:21:13.814Z,100668.67
2023-05-10T20:26:16.909Z,100671.13
2023-05-10T20:31:19.971Z,100668.48
2023-05-10T20:36:23.170Z,100668.45
2023-05-10T20:41:26.341Z,100669.79
2023-05-10T20:46:30.638Z,100673.56
2023-05-10T20:51:33.888Z,100679.25
2023-05-10T20:56:36.998Z,100682.33
2023-05-10T21:01:39.930Z,100685.02
2023-05-10T21:06:46.090Z,100686.98
2023-05-10T21:11:50.174Z,100692.42
2023-05-10T21:16:53.223Z,100689.84
2023-05-10T21:21:57.678Z,100688.84
2023-05-10T21:27:01.387Z,100691.98
2023-05-10T21:32:04.653Z,100694.09
2023-05-10T21:37:07.815Z,100694.61
2023-05-10T21:42:10.824Z,100699.84
2023-05-10T21:47:13.925Z,100696.71
2023-05-10T21:52:16.939Z,100698.45
2023-05-10T21:57:21.703Z,100697.91
2023-05-10T22:02:24.973Z,100699.45
2023-05-10T22:07:28.309Z,100705.36
2023-05-10T22:12:31.312Z,100707.60
2023-05-10T22:17:34.446Z,100710.52
2023-05-10T22:22:37.664Z,100712.75
2023-05-10T22:27:40.945Z,100716.20
2023-05-10T22:32:43.919Z,100714.80
2023-05-10T22:37:47.479Z,100717.43
2023-05-10T22:42:50.892Z,100719.86
2023-05-10T22:47:53.934Z,100719.67
2023-05-10T22:52:57.110Z,100730.41
2023-05-10T22:58:00.729Z,100729.34
2023-05-10T23:03:05.128Z,100730.70
2023-05-10T23:08:08.069Z,100732.73
2023-05-10T23:13:11.181Z,100734.46
2023-05-10T23:18:14.393Z,100735.65
2023-05-10T23:23:17.965Z,100738.93
2023-05-10T23:28:20.938Z,100734.40
2023-05-10T23:33:25.096Z,100728.27
2023-05-10T23:38:28.061Z,100729.29
2023-05-10T23:43:31.377Z,100735.34
2023-05-10T23:48:34.592Z,100740.90
2023-05-10T23:53:38.008Z,100743.81
2023-05-10T23:58:40.945Z,100742.89
